Time;durP1;ratioP1;P1;durP2;ratioP2;P2;SDS_P1;SDS_P2;PMS_P1;PMS_P2;Temp;Humidity;BMP_temperature;BMP_pressure;BME280_temperature;BME280_humidity;BME280_pressure;Samples;Min_cycle;Max_cycle;Signal;HPM_P1;HPM_P2
2023/05/31 00:01:34;;;;;;;5.60;3.25;;;11.60;99.90;;;;;;4992824;28;20080;-89
2023/05/31 00:04:00;;;;;;;6.93;3.47;;;11.60;99.90;;;;;;4967478;28;20042;-89
2023/05/31 00:06:26;;;;;;;6.82;3.78;;;11.60;99.90;;;;;;4976927;28;20026;-89
2023/05/31 00:08:51;;;;;;;5.32;3.47;;;11.50;99.90;;;;;;4988467;28;20037;-89
2023/05/31 00:11:17;;;;;;;8.52;4.57;;;11.50;99.90;;;;;;5001528;28;20475;-89
2023/05/31 00:13:42;;;;;;;6.40;3.85;;;11.40;99.90;;;;;;4998967;28;20041;-89
2023/05/31 00:16:10;;;;;;;5.75;3.80;;;11.40;99.90;;;;;;4966516;28;20047;-90
2023/05/31 00:18:35;;;;;;;6.40;3.60;;;11.40;99.90;;;;;;4968913;28;20085;-90
2023/05/31 00:21:02;;;;;;;5.30;3.78;;;11.30;99.90;;;;;;4970355;28;20062;-90
2023/05/31 00:23:27;;;;;;;5.45;3.83;;;11.30;99.90;;;;;;4977485;28;20092;-90
2023/05/31 00:25:53;;;;;;;13.63;4.93;;;11.30;99.90;;;;;;4977392;28;20406;-89
2023/05/31 00:28:18;;;;;;;7.50;4.50;;;11.20;99.90;;;;;;4986902;28;20336;-89
2023/05/31 00:30:44;;;;;;;6.22;3.95;;;11.30;99.90;;;;;;4970525;28;20026;-89
2023/05/31 00:33:11;;;;;;;6.22;3.63;;;11.20;99.90;;;;;;4974759;28;20109;-90
2023/05/31 00:35:37;;;;;;;6.95;4.10;;;11.20;99.90;;;;;;4981346;28;20057;-89
2023/05/31 00:38:05;;;;;;;5.55;3.92;;;11.20;99.90;;;;;;4972475;28;20034;-89
2023/05/31 00:40:31;;;;;;;5.97;3.97;;;11.20;99.90;;;;;;4984083;28;20033;-89
2023/05/31 00:42:57;;;;;;;4.95;3.45;;;11.10;99.90;;;;;;4972822;28;20434;-90
2023/05/31 00:45:23;;;;;;;5.38;3.65;;;11.10;99.90;;;;;;4983896;28;20092;-90
2023/05/31 00:47:49;;;;;;;6.60;3.85;;;11.00;99.90;;;;;;4972387;28;20471;-89
2023/05/31 00:50:15;;;;;;;7.28;3.75;;;11.10;99.90;;;;;;4978935;28;20030;-89
2023/05/31 00:52:44;;;;;;;7.32;3.90;;;11.00;99.90;;;;;;4974878;28;20025;-89
2023/05/31 00:55:09;;;;;;;6.47;3.95;;;11.00;99.90;;;;;;4966877;28;20470;-90
2023/05/31 00:57:35;;;;;;;6.50;3.53;;;11.00;99.90;;;;;;4976856;28;20026;-90
2023/05/31 01:00:01;;;;;;;6.47;4.13;;;10.90;99.90;;;;;;4967611;28;20459;-90
2023/05/31 01:02:27;;;;;;;6.20;3.53;;;10.90;99.90;;;;;;4976080;28;20529;-90
2023/05/31 01:04:52;;;;;;;5.28;3.67;;;10.90;99.90;;;;;;4970347;28;20030;-89
2023/05/31 01:07:18;;;;;;;7.28;3.80;;;10.80;99.90;;;;;;4974576;28;20034;-89
2023/05/31 01:09:43;;;;;;;6.75;4.05;;;10.90;99.90;;;;;;4978844;28;20544;-89
2023/05/31 01:12:41;;;;;;;10.93;4.40;;;10.80;99.90;;;;;;4980960;28;20527;-90
2023/05/31 01:15:13;;;;;;;6.28;3.42;;;10.80;99.90;;;;;;4971957;28;20062;-90
2023/05/31 01:17:55;;;;;;;6.93;4.28;;;10.70;99.90;;;;;;4973683;28;20022;-89
2023/05/31 01:20:24;;;;;;;5.78;4.00;;;10.70;99.90;;;;;;4984888;28;20034;-89
2023/05/31 01:22:57;;;;;;;7.00;4.60;;;10.70;99.90;;;;;;4970664;28;20483;-89
2023/05/31 01:25:29;;;;;;;8.27;3.97;;;10.70;99.90;;;;;;4968334;28;20575;-90
2023/05/31 01:27:58;;;;;;;6.75;4.25;;;10.70;99.90;;;;;;4991758;28;20439;-89
2023/05/31 01:30:26;;;;;;;7.53;4.60;;;10.70;99.90;;;;;;4972972;28;20031;-89
2023/05/31 01:32:53;;;;;;;9.80;4.25;;;10.70;99.90;;;;;;4968381;28;20037;-90
2023/05/31 01:35:19;;;;;;;8.98;4.18;;;10.60;99.90;;;;;;4961267;28;20454;-89
2023/05/31 01:37:45;;;;;;;6.90;4.40;;;10.70;99.90;;;;;;4987774;28;20030;-89
2023/05/31 01:40:14;;;;;;;8.95;4.90;;;10.60;99.90;;;;;;4992288;28;20490;-90
2023/05/31 01:42:42;;;;;;;8.73;4.53;;;10.60;99.90;;;;;;4991667;28;20069;-89
2023/05/31 01:45:08;;;;;;;9.98;5.00;;;10.60;99.90;;;;;;4989713;28;20030;-89
2023/05/31 01:47:34;;;;;;;9.32;5.10;;;10.60;99.90;;;;;;5005587;28;20033;-90
2023/05/31 01:50:00;;;;;;;7.60;4.63;;;10.50;99.90;;;;;;4993410;28;20048;-89
2023/05/31 01:52:26;;;;;;;9.23;4.85;;;10.50;99.90;;;;;;4977149;28;20027;-89
2023/05/31 01:54:52;;;;;;;8.20;5.10;;;10.50;99.90;;;;;;4972236;28;20110;-89
2023/05/31 01:57:19;;;;;;;10.25;4.88;;;10.60;99.90;;;;;;4983510;28;20117;-89
2023/05/31 01:59:46;;;;;;;11.43;5.75;;;10.50;99.90;;;;;;4973835;28;20427;-89
2023/05/31 02:02:12;;;;;;;8.13;5.40;;;10.50;99.90;;;;;;4999664;28;20139;-89
2023/05/31 02:04:37;;;;;;;13.15;5.82;;;10.50;99.90;;;;;;4971007;28;20069;-89
2023/05/31 02:07:03;;;;;;;9.05;5.72;;;10.50;99.90;;;;;;4976295;28;20101;-89
2023/05/31 02:09:29;;;;;;;10.98;5.05;;;10.60;99.90;;;;;;4976304;28;20032;-89
2023/05/31 02:11:54;;;;;;;12.50;6.60;;;10.60;99.90;;;;;;4983778;28;20031;-90
2023/05/31 02:14:20;;;;;;;9.25;5.13;;;10.60;99.90;;;;;;4969455;28;20022;-89
2023/05/31 02:16:45;;;;;;;9.63;5.35;;;10.60;99.90;;;;;;4973533;28;20030;-89
2023/05/31 02:19:13;;;;;;;10.82;5.72;;;10.60;99.90;;;;;;4975342;28;20121;-89
2023/05/31 02:21:39;;;;;;;11.40;6.20;;;10.60;99.90;;;;;;4969266;28;20483;-89
2023/05/31 02:24:05;;;;;;;11.45;6.07;;;10.60;99.90;;;;;;4975785;28;20394;-88
2023/05/31 02:26:30;;;;;;;14.05;6.18;;;10.60;99.90;;;;;;4976537;28;20037;-89
2023/05/31 02:28:56;;;;;;;11.25;5.80;;;10.60;99.90;;;;;;4973188;28;20449;-90
2023/05/31 02:31:21;;;;;;;11.50;6.13;;;10.60;99.90;;;;;;4971146;28;20049;-89
2023/05/31 02:33:48;;;;;;;11.88;6.20;;;10.60;99.90;;;;;;4963843;28;20434;-89
2023/05/31 02:36:13;;;;;;;12.45;7.22;;;10.60;99.90;;;;;;4973594;28;20077;-89
2023/05/31 02:38:39;;;;;;;11.23;6.10;;;10.60;99.90;;;;;;4974565;28;20061;-90
2023/05/31 02:41:05;;;;;;;13.13;6.85;;;10.50;99.90;;;;;;4972637;28;20034;-89
2023/05/31 02:43:31;;;;;;;12.55;6.70;;;10.50;99.90;;;;;;4974615;28;20060;-89
2023/05/31 02:45:57;;;;;;;14.50;6.93;;;10.50;99.90;;;;;;4988794;28;20109;-89
2023/05/31 02:48:22;;;;;;;12.43;6.97;;;10.50;99.90;;;;;;4973813;28;20391;-89
2023/05/31 02:50:48;;;;;;;13.82;7.43;;;10.50;99.90;;;;;;4962915;28;20034;-89
2023/05/31 02:53:13;;;;;;;11.85;7.57;;;10.50;99.90;;;;;;4994726;28;20064;-90
2023/05/31 02:55:39;;;;;;;14.05;7.78;;;10.50;99.90;;;;;;4984860;28;20033;-89
2023/05/31 02:58:06;;;;;;;16.73;8.30;;;10.50;99.90;;;;;;4983216;28;20033;-89
2023/05/31 03:00:32;;;;;;;13.38;7.32;;;10.50;99.90;;;;;;4976039;28;20494;-89
2023/05/31 03:02:58;;;;;;;14.75;8.75;;;10.50;99.90;;;;;;4976319;28;20031;-89
2023/05/31 03:05:24;;;;;;;14.13;8.15;;;10.50;99.90;;;;;;4972498;28;20505;-89
2023/05/31 03:07:49;;;;;;;16.42;7.78;;;10.50;99.90;;;;;;4979339;28;20050;-89
2023/05/31 03:10:15;;;;;;;16.67;8.75;;;10.50;99.90;;;;;;4983789;28;20030;-89
2023/05/31 03:12:40;;;;;;;25.05;9.02;;;10.50;99.90;;;;;;4992428;28;20034;-89
2023/05/31 03:15:07;;;;;;;18.25;8.88;;;10.50;99.90;;;;;;4986427;28;20026;-89
2023/05/31 03:17:32;;;;;;;15.52;9.18;;;10.50;99.90;;;;;;4969106;28;20126;-89
2023/05/31 03:19:58;;;;;;;15.57;8.27;;;10.50;99.90;;;;;;4982244;28;20101;-90
2023/05/31 03:22:25;;;;;;;14.40;8.18;;;10.50;99.90;;;;;;4977252;28;20479;-89
2023/05/31 03:24:50;;;;;;;15.60;8.18;;;10.50;99.90;;;;;;4980130;28;20117;-89
2023/05/31 03:27:16;;;;;;;15.73;8.20;;;10.50;99.90;;;;;;4977375;28;20807;-89
2023/05/31 03:29:42;;;;;;;15.90;8.15;;;10.50;99.90;;;;;;4972419;28;20037;-89
2023/05/31 03:32:08;;;;;;;19.88;8.90;;;10.50;99.90;;;;;;4979262;28;20026;-89
2023/05/31 03:34:34;;;;;;;19.17;9.60;;;10.50;99.90;;;;;;4967621;28;20090;-89
2023/05/31 03:37:01;;;;;;;19.90;9.00;;;10.50;99.90;;;;;;4961259;28;20034;-89
2023/05/31 03:39:27;;;;;;;20.10;9.65;;;10.50;99.90;;;;;;4955111;28;20032;-89
2023/05/31 03:41:53;;;;;;;17.73;9.85;;;10.50;99.90;;;;;;4953951;28;20051;-90
2023/05/31 03:44:19;;;;;;;15.77;9.27;;;10.50;99.90;;;;;;4957883;28;20031;-90
2023/05/31 03:46:44;;;;;;;16.70;9.05;;;10.50;99.90;;;;;;4954084;28;20028;-89
2023/05/31 03:49:10;;;;;;;19.67;9.45;;;10.50;99.90;;;;;;4957761;28;20033;-90
2023/05/31 03:51:35;;;;;;;16.50;8.85;;;10.50;99.90;;;;;;4943022;28;20027;-90
2023/05/31 03:54:01;;;;;;;20.63;10.65;;;10.50;99.90;;;;;;4952556;28;20498;-90
2023/05/31 03:56:27;;;;;;;19.55;9.60;;;10.50;99.90;;;;;;4955245;28;20028;-89
2023/05/31 03:58:52;;;;;;;16.27;8.95;;;10.50;99.90;;;;;;4952405;28;20058;-89
2023/05/31 04:01:18;;;;;;;20.23;10.07;;;10.50;99.90;;;;;;4957009;28;20034;-89
2023/05/31 04:03:43;;;;;;;22.50;10.35;;;10.50;99.90;;;;;;4962630;28;20125;-89
2023/05/31 04:06:10;;;;;;;20.10;10.10;;;10.50;99.90;;;;;;4954574;28;20550;-89
2023/05/31 04:08:35;;;;;;;17.65;9.68;;;10.50;99.90;;;;;;4959864;28;20046;-90
2023/05/31 04:11:01;;;;;;;20.67;10.55;;;10.50;99.90;;;;;;4962958;28;20023;-89
2023/05/31 04:13:26;;;;;;;20.65;10.82;;;10.50;99.90;;;;;;4955556;28;20034;-89
2023/05/31 04:15:52;;;;;;;26.38;12.77;;;10.60;99.90;;;;;;4955709;28;20118;-89
2023/05/31 04:18:18;;;;;;;19.42;11.00;;;10.60;99.90;;;;;;4946933;28;20055;-89
2023/05/31 04:20:44;;;;;;;19.52;10.90;;;10.60;99.90;;;;;;4951155;28;20026;-90
2023/05/31 04:23:09;;;;;;;18.27;10.10;;;10.70;99.90;;;;;;4947265;28;20035;-90
2023/05/31 04:25:35;;;;;;;24.83;11.18;;;10.70;99.90;;;;;;4946218;28;20035;-89
2023/05/31 04:28:01;;;;;;;26.83;11.27;;;10.70;99.90;;;;;;4953184;28;20031;-89
2023/05/31 04:30:27;;;;;;;21.08;10.75;;;10.80;99.90;;;;;;4963196;28;20054;-89
2023/05/31 04:32:57;;;;;;;23.15;10.90;;;10.80;99.90;;;;;;4960522;28;20492;-89
2023/05/31 04:35:23;;;;;;;17.52;10.80;;;10.90;99.90;;;;;;4955113;28;20050;-89
2023/05/31 04:37:52;;;;;;;17.83;10.43;;;10.90;99.90;;;;;;4954603;28;20495;-89
2023/05/31 04:40:20;;;;;;;22.85;11.32;;;10.90;99.90;;;;;;4965213;28;20038;-89
2023/05/31 04:42:46;;;;;;;25.05;11.85;;;11.00;99.90;;;;;;4952214;28;20760;-89
2023/05/31 04:45:11;;;;;;;20.65;11.20;;;11.00;99.90;;;;;;4956214;28;20030;-89
2023/05/31 04:47:37;;;;;;;23.55;12.52;;;11.10;99.90;;;;;;4980089;28;20034;-89
2023/05/31 04:50:03;;;;;;;23.38;11.20;;;11.10;99.90;;;;;;4954907;28;20037;-89
2023/05/31 04:52:30;;;;;;;23.25;12.50;;;11.20;99.90;;;;;;4952407;28;20046;-89
2023/05/31 04:54:58;;;;;;;21.58;11.15;;;11.30;99.90;;;;;;4951622;28;20384;-89
2023/05/31 04:57:24;;;;;;;18.98;10.65;;;11.50;99.90;;;;;;4949592;28;20139;-89
2023/05/31 04:59:50;;;;;;;16.52;9.60;;;11.80;99.90;;;;;;4952228;28;20109;-89
2023/05/31 05:02:18;;;;;;;21.15;10.27;;;12.10;99.90;;;;;;4951853;28;20038;-89
2023/05/31 05:04:43;;;;;;;20.27;11.80;;;12.40;99.90;;;;;;4969165;28;20571;-89
2023/05/31 05:07:09;;;;;;;19.48;11.20;;;12.50;99.90;;;;;;4955613;28;20122;-88
2023/05/31 05:09:34;;;;;;;18.15;9.57;;;12.80;99.90;;;;;;4981297;28;20030;-88
2023/05/31 05:12:00;;;;;;;16.73;10.98;;;12.90;99.90;;;;;;4971773;28;20027;-88
2023/05/31 05:14:26;;;;;;;23.17;11.55;;;13.10;99.90;;;;;;4956357;29;20035;-88
2023/05/31 05:16:51;;;;;;;16.17;10.07;;;13.30;99.90;;;;;;4962711;28;20034;-88
2023/05/31 05:19:17;;;;;;;18.50;9.65;;;13.50;99.90;;;;;;4980503;28;20031;-88
2023/05/31 05:21:42;;;;;;;21.75;10.80;;;13.60;99.90;;;;;;4974231;28;20067;-87
2023/05/31 05:24:08;;;;;;;18.48;10.43;;;13.80;99.90;;;;;;4966652;28;20039;-89
2023/05/31 05:26:34;;;;;;;21.52;9.50;;;14.00;99.90;;;;;;4956068;28;20027;-89
2023/05/31 05:28:59;;;;;;;15.90;9.93;;;14.20;99.90;;;;;;4951808;28;20087;-88
2023/05/31 05:31:25;;;;;;;18.58;10.30;;;14.40;99.90;;;;;;4947483;28;20542;-88
2023/05/31 05:33:50;;;;;;;17.25;10.50;;;14.50;99.90;;;;;;4955071;28;20432;-89
2023/05/31 05:36:16;;;;;;;15.02;9.32;;;14.70;99.90;;;;;;4981552;28;20047;-88
2023/05/31 05:38:41;;;;;;;18.52;10.95;;;14.70;99.90;;;;;;4969170;28;20041;-88
2023/05/31 05:41:11;;;;;;;15.63;10.82;;;14.70;99.90;;;;;;4975691;28;20030;-88
2023/05/31 05:43:40;;;;;;;16.20;10.52;;;14.60;99.90;;;;;;4977999;28;21044;-87
2023/05/31 05:46:05;;;;;;;20.55;11.60;;;14.50;99.90;;;;;;4975611;28;20046;-89
2023/05/31 05:48:31;;;;;;;19.17;11.48;;;14.40;99.90;;;;;;4989120;28;20041;-87
2023/05/31 05:50:57;;;;;;;20.98;11.13;;;14.30;99.90;;;;;;5004260;28;20061;-88
2023/05/31 05:53:23;;;;;;;21.35;11.15;;;14.20;99.90;;;;;;4969108;28;20239;-88
2023/05/31 05:55:52;;;;;;;20.08;11.13;;;14.20;99.90;;;;;;4985975;28;20092;-88
2023/05/31 05:58:18;;;;;;;18.20;11.57;;;14.20;99.90;;;;;;4964116;28;20035;-89
2023/05/31 06:00:45;;;;;;;21.92;12.20;;;14.20;99.90;;;;;;4971275;28;20153;-90
2023/05/31 06:03:11;;;;;;;22.88;13.25;;;14.20;99.90;;;;;;4965104;28;20130;-90
2023/05/31 06:05:37;;;;;;;20.08;12.30;;;14.20;99.90;;;;;;4976282;28;20030;-89
2023/05/31 06:08:02;;;;;;;22.40;11.68;;;14.40;99.90;;;;;;4977427;28;20041;-90
2023/05/31 06:10:28;;;;;;;21.00;13.10;;;14.50;99.90;;;;;;4987260;28;20041;-89
2023/05/31 06:12:54;;;;;;;23.85;12.48;;;14.60;99.90;;;;;;4978550;28;20422;-89
2023/05/31 06:15:20;;;;;;;21.77;12.25;;;14.60;99.90;;;;;;4968833;28;20030;-89
2023/05/31 06:17:48;;;;;;;19.75;11.02;;;14.60;99.90;;;;;;4977294;28;20109;-88
2023/05/31 06:20:13;;;;;;;19.80;10.50;;;14.70;99.90;;;;;;4972577;28;20038;-89
2023/05/31 06:22:39;;;;;;;21.08;11.52;;;14.80;99.90;;;;;;4980311;28;20404;-88
2023/05/31 06:25:05;;;;;;;20.70;11.98;;;14.80;99.90;;;;;;4974865;28;20026;-88
2023/05/31 06:27:30;;;;;;;20.63;10.43;;;14.90;99.90;;;;;;4972351;28;20031;-87
2023/05/31 06:29:58;;;;;;;18.40;10.07;;;14.90;99.90;;;;;;4975509;28;20037;-90
2023/05/31 06:32:25;;;;;;;18.52;11.63;;;15.00;99.90;;;;;;4970021;28;20041;-88
2023/05/31 06:34:51;;;;;;;17.67;11.00;;;15.00;99.90;;;;;;4962868;28;20450;-88
2023/05/31 06:37:17;;;;;;;17.90;11.13;;;15.10;99.90;;;;;;4982196;28;20055;-88
2023/05/31 06:39:43;;;;;;;16.52;11.27;;;15.20;99.90;;;;;;4975430;28;20115;-88
2023/05/31 06:42:09;;;;;;;16.00;9.65;;;15.30;99.90;;;;;;4971288;28;20570;-88
2023/05/31 06:44:35;;;;;;;16.95;8.90;;;15.30;99.90;;;;;;4968460;28;20025;-87
2023/05/31 06:47:00;;;;;;;18.05;10.80;;;15.30;99.90;;;;;;4967153;28;20026;-88
2023/05/31 06:49:27;;;;;;;17.33;10.77;;;15.40;99.90;;;;;;4981488;28;20398;-88
2023/05/31 06:51:53;;;;;;;18.13;10.30;;;15.40;99.90;;;;;;4969921;28;20034;-88
2023/05/31 06:54:18;;;;;;;16.35;9.65;;;15.40;99.90;;;;;;4972131;28;20118;-93
2023/05/31 06:56:44;;;;;;;14.85;8.88;;;15.50;99.90;;;;;;4970148;28;20030;-90
2023/05/31 06:59:09;;;;;;;15.60;8.63;;;15.60;99.90;;;;;;4973973;28;20045;-88
2023/05/31 07:01:35;;;;;;;16.83;9.82;;;15.60;99.90;;;;;;4963139;28;20109;-89
2023/05/31 07:04:01;;;;;;;15.73;9.63;;;15.70;99.90;;;;;;4970299;28;20051;-88
2023/05/31 07:06:27;;;;;;;15.52;9.40;;;15.70;99.90;;;;;;4967364;28;20065;-87
2023/05/31 07:08:53;;;;;;;16.33;8.95;;;15.80;99.90;;;;;;4962626;28;20045;-89
2023/05/31 07:11:19;;;;;;;18.73;8.82;;;15.90;99.90;;;;;;4971221;28;20023;-88
2023/05/31 07:13:44;;;;;;;14.75;8.60;;;16.10;99.90;;;;;;4971956;28;20042;-88
2023/05/31 07:16:10;;;;;;;16.55;9.23;;;16.10;99.90;;;;;;4975226;28;20023;-89
2023/05/31 07:18:35;;;;;;;22.65;11.25;;;16.10;99.90;;;;;;4985775;28;20428;-89
2023/05/31 07:21:01;;;;;;;25.08;16.30;;;16.20;99.90;;;;;;4976755;28;20030;-88
2023/05/31 07:23:26;;;;;;;23.50;10.55;;;16.30;99.90;;;;;;4975087;28;20045;-88
2023/05/31 07:25:52;;;;;;;16.65;9.30;;;16.40;99.90;;;;;;4972043;28;20027;-89
2023/05/31 07:28:18;;;;;;;19.08;9.50;;;16.40;99.90;;;;;;4974407;28;20050;-88
2023/05/31 07:30:43;;;;;;;15.75;8.40;;;16.40;99.90;;;;;;4968187;28;20026;-88
2023/05/31 07:33:09;;;;;;;16.40;9.23;;;16.50;99.90;;;;;;4989495;28;20094;-87
2023/05/31 07:35:34;;;;;;;16.13;9.15;;;16.60;99.90;;;;;;4957503;28;20040;-88
2023/05/31 07:38:00;;;;;;;20.38;8.60;;;16.60;99.90;;;;;;4948907;28;20412;-89
2023/05/31 07:40:25;;;;;;;16.98;8.30;;;16.70;99.90;;;;;;4940628;28;20102;-88
2023/05/31 07:42:51;;;;;;;17.40;8.98;;;16.80;99.90;;;;;;4944398;28;20070;-89
2023/05/31 07:45:16;;;;;;;13.88;7.32;;;16.90;99.90;;;;;;4953579;28;20038;-90
2023/05/31 07:47:42;;;;;;;21.02;8.50;;;17.00;99.90;;;;;;4944752;28;20034;-89
2023/05/31 07:50:07;;;;;;;14.82;7.40;;;17.00;99.90;;;;;;4947627;28;20027;-88
2023/05/31 07:52:33;;;;;;;17.80;8.57;;;17.10;99.90;;;;;;4946107;28;20086;-88
2023/05/31 07:54:58;;;;;;;17.80;8.13;;;17.20;99.90;;;;;;4947408;28;20963;-88
2023/05/31 07:57:24;;;;;;;12.77;7.35;;;17.40;99.90;;;;;;4947141;28;20471;-88
2023/05/31 07:59:53;;;;;;;15.35;7.15;;;17.50;99.90;;;;;;4947949;28;20115;-87
2023/05/31 08:02:18;;;;;;;15.48;8.15;;;17.70;99.90;;;;;;4947530;28;20066;-88
2023/05/31 08:04:44;;;;;;;13.88;7.10;;;17.70;99.90;;;;;;4947392;28;20457;-89
2023/05/31 08:07:10;;;;;;;11.93;6.43;;;17.70;99.90;;;;;;4964736;28;20027;-88
2023/05/31 08:09:35;;;;;;;13.52;7.75;;;17.70;99.90;;;;;;4948671;28;20079;-89
2023/05/31 08:12:02;;;;;;;14.80;6.82;;;17.80;99.90;;;;;;4953336;28;20111;-89
2023/05/31 08:14:28;;;;;;;14.18;7.30;;;17.80;99.90;;;;;;4950054;28;20039;-88
2023/05/31 08:16:54;;;;;;;13.38;7.72;;;17.90;99.90;;;;;;4955214;28;20035;-87
2023/05/31 08:19:19;;;;;;;12.50;7.03;;;18.00;99.90;;;;;;4952966;28;20062;-86
2023/05/31 08:21:46;;;;;;;11.00;6.13;;;18.10;99.90;;;;;;4953019;28;20182;-86
2023/05/31 08:24:12;;;;;;;14.88;6.85;;;18.20;99.90;;;;;;4940196;28;20035;-87
2023/05/31 08:26:38;;;;;;;13.23;7.22;;;18.30;99.90;;;;;;4953036;28;20030;-88
2023/05/31 08:29:03;;;;;;;14.20;7.60;;;18.40;99.90;;;;;;4951977;28;20038;-87
2023/05/31 08:31:29;;;;;;;17.85;7.00;;;18.40;99.90;;;;;;4950436;28;20031;-90
2023/05/31 08:33:56;;;;;;;15.30;7.00;;;18.50;99.90;;;;;;4950123;28;20042;-88
2023/05/31 08:36:22;;;;;;;18.10;7.05;;;18.70;99.90;;;;;;4949450;28;20034;-88
2023/05/31 08:38:47;;;;;;;13.18;5.75;;;18.80;99.90;;;;;;4955828;28;20480;-88
2023/05/31 08:41:13;;;;;;;11.13;5.55;;;18.80;99.90;;;;;;4951036;28;20030;-95
2023/05/31 08:43:40;;;;;;;12.35;5.95;;;19.00;99.90;;;;;;4946990;28;20043;-88
2023/05/31 08:46:07;;;;;;;8.13;4.70;;;19.10;99.90;;;;;;4950488;28;20019;-88
2023/05/31 08:48:43;;;;;;;10.40;4.82;;;19.20;99.90;;;;;;4970863;28;20042;-88
2023/05/31 08:51:09;;;;;;;10.30;4.63;;;19.30;99.90;;;;;;4959434;28;20071;-88
2023/05/31 08:53:35;;;;;;;12.82;5.10;;;19.40;99.90;;;;;;4959349;28;20127;-88
2023/05/31 08:56:03;;;;;;;11.02;4.65;;;19.50;99.90;;;;;;4943007;28;20024;-89
2023/05/31 08:58:29;;;;;;;7.40;3.97;;;19.70;99.90;;;;;;4951320;28;20031;-89
2023/05/31 09:00:55;;;;;;;9.90;3.60;;;19.70;99.90;;;;;;4952080;28;20039;-89
2023/05/31 09:03:22;;;;;;;9.73;4.68;;;19.70;99.90;;;;;;4947569;28;20043;-89
2023/05/31 09:05:48;;;;;;;9.38;4.15;;;19.90;99.90;;;;;;4962984;28;20054;-89
2023/05/31 09:08:14;;;;;;;8.68;3.58;;;20.00;99.90;;;;;;4958297;28;20031;-89
2023/05/31 09:10:40;;;;;;;9.43;3.10;;;20.00;99.90;;;;;;4958171;28;20369;-89
2023/05/31 09:13:06;;;;;;;10.68;3.20;;;20.20;99.90;;;;;;4960267;28;20063;-90
2023/05/31 09:15:34;;;;;;;12.60;4.00;;;20.30;99.90;;;;;;4942535;28;20030;-89
2023/05/31 09:18:14;;;;;;;8.95;2.75;;;20.50;99.90;;;;;;4941810;28;20067;-89
2023/05/31 09:20:39;;;;;;;8.98;3.00;;;20.60;99.90;;;;;;4956878;28;20023;-90
2023/05/31 09:23:05;;;;;;;11.02;3.03;;;20.70;99.90;;;;;;4955264;28;20042;-91
2023/05/31 09:25:51;;;;;;;10.35;2.40;;;20.90;99.90;;;;;;4946139;28;20506;-89
2023/05/31 09:28:18;;;;;;;8.57;2.63;;;21.20;99.90;;;;;;4939676;28;20038;-89
2023/05/31 09:30:44;;;;;;;7.97;2.75;;;21.30;98.50;;;;;;4961419;28;20035;-91
2023/05/31 09:33:10;;;;;;;6.68;2.65;;;21.40;97.70;;;;;;4950225;28;20440;-89
2023/05/31 09:35:36;;;;;;;8.07;2.95;;;21.40;96.70;;;;;;4955336;28;20529;-89
2023/05/31 09:38:06;;;;;;;7.55;2.08;;;21.40;95.80;;;;;;4958582;28;20135;-89
2023/05/31 09:40:32;;;;;;;5.47;1.85;;;21.40;95.60;;;;;;4960390;28;20085;-89
2023/05/31 09:42:58;;;;;;;8.40;2.13;;;21.50;95.40;;;;;;4970370;28;20034;-89
2023/05/31 09:45:24;;;;;;;8.15;1.95;;;21.50;95.10;;;;;;4961793;28;20029;-90
2023/05/31 09:47:51;;;;;;;10.98;2.65;;;21.70;95.10;;;;;;4963332;28;20511;-90
2023/05/31 09:50:19;;;;;;;7.63;2.50;;;21.80;94.70;;;;;;4965101;28;20034;-89
2023/05/31 09:52:46;;;;;;;7.22;2.15;;;21.90;93.60;;;;;;4971201;28;20082;-90
2023/05/31 09:55:13;;;;;;;9.55;2.10;;;22.00;94.00;;;;;;4959874;28;20042;-89
2023/05/31 09:57:40;;;;;;;6.82;1.60;;;22.10;93.00;;;;;;4960985;28;20059;-90
2023/05/31 10:00:20;;;;;;;6.60;1.92;;;22.10;92.90;;;;;;4956832;28;21528;-90
2023/05/31 10:02:53;;;;;;;9.80;1.95;;;22.10;92.10;;;;;;4958811;28;20167;-91
2023/05/31 10:05:20;;;;;;;5.20;1.45;;;22.10;92.10;;;;;;4953680;28;20052;-93
2023/05/31 10:07:50;;;;;;;8.15;2.50;;;22.30;92.20;;;;;;4951313;28;20070;-92
2023/05/31 10:10:20;;;;;;;6.03;1.60;;;22.30;91.50;;;;;;4953912;28;20547;-90
2023/05/31 10:12:49;;;;;;;4.85;1.20;;;22.30;90.70;;;;;;4957615;28;20031;-90
2023/05/31 10:15:26;;;;;;;8.82;1.80;;;22.40;90.30;;;;;;4948771;28;20028;-90
2023/05/31 10:18:01;;;;;;;5.88;1.40;;;22.50;90.00;;;;;;4961548;28;20435;-91
2023/05/31 10:20:49;;;;;;;4.25;1.00;;;22.50;87.90;;;;;;4963680;28;20026;-91
2023/05/31 10:23:21;;;;;;;5.70;1.50;;;22.50;88.00;;;;;;4961571;28;20093;-90
2023/05/31 10:25:51;;;;;;;5.43;1.58;;;22.50;87.10;;;;;;4957372;28;20027;-91
2023/05/31 10:28:20;;;;;;;6.22;1.38;;;22.50;87.60;;;;;;4950138;28;20027;-90
2023/05/31 10:30:51;;;;;;;7.63;1.65;;;22.50;87.30;;;;;;4953016;28;20039;-90
2023/05/31 10:33:19;;;;;;;7.97;1.13;;;22.60;85.90;;;;;;4954108;28;20069;-91
2023/05/31 10:35:45;;;;;;;5.53;1.42;;;22.70;85.20;;;;;;4950533;28;20050;-90
2023/05/31 10:38:13;;;;;;;4.45;1.05;;;22.90;83.90;;;;;;4960650;28;20037;-90
2023/05/31 10:40:49;;;;;;;5.88;1.30;;;22.90;83.20;;;;;;4936299;29;20103;-90
2023/05/31 10:43:39;;;;;;;6.43;1.05;;;23.00;81.60;;;;;;4949469;28;20166;-90
2023/05/31 10:46:15;;;;;;;8.45;1.67;;;23.00;79.70;;;;;;4940580;28;20506;-90
2023/05/31 10:48:54;;;;;;;6.65;1.40;;;22.90;79.70;;;;;;4960302;28;20031;-89
2023/05/31 10:51:19;;;;;;;5.90;1.80;;;23.10;79.50;;;;;;4944933;28;20649;-90
2023/05/31 10:53:46;;;;;;;4.10;1.30;;;23.00;78.20;;;;;;4948167;28;20019;-91
2023/05/31 10:56:13;;;;;;;6.82;1.20;;;23.00;78.60;;;;;;4952488;28;20034;-91
2023/05/31 10:58:57;;;;;;;5.30;1.55;;;23.00;77.90;;;;;;4953913;28;20034;-90
2023/05/31 11:01:28;;;;;;;6.68;1.20;;;23.00;78.00;;;;;;4951207;28;20046;-90
2023/05/31 11:03:55;;;;;;;6.47;1.35;;;23.00;77.10;;;;;;4942040;28;20504;-89
2023/05/31 11:06:27;;;;;;;3.88;1.33;;;23.00;78.20;;;;;;4950826;28;20031;-89
2023/05/31 11:09:08;;;;;;;7.18;1.20;;;23.10;78.00;;;;;;4950794;28;20028;-88
2023/05/31 11:11:33;;;;;;;9.25;1.60;;;23.20;77.30;;;;;;4948128;28;20031;-91
2023/05/31 11:14:04;;;;;;;6.78;1.20;;;23.20;75.60;;;;;;4952218;28;20035;-91
2023/05/31 11:16:32;;;;;;;4.80;1.50;;;23.20;76.20;;;;;;4948862;28;20047;-92
2023/05/31 11:19:06;;;;;;;6.45;1.25;;;23.20;76.20;;;;;;4953133;28;20035;-90
2023/05/31 11:21:51;;;;;;;7.63;1.55;;;23.30;75.80;;;;;;4949793;28;20047;-91
2023/05/31 11:24:27;;;;;;;5.13;0.88;;;23.30;76.10;;;;;;4943973;28;20036;-92
2023/05/31 11:26:53;;;;;;;12.18;1.20;;;23.40;77.00;;;;;;4951687;28;20031;-91
2023/05/31 11:29:19;;;;;;;17.60;1.65;;;23.60;76.30;;;;;;4957976;28;20058;-91
2023/05/31 11:31:48;;;;;;;9.27;1.85;;;23.70;75.40;;;;;;4959538;28;20062;-91
2023/05/31 11:34:28;;;;;;;8.02;1.45;;;23.80;73.60;;;;;;4958362;28;20137;-91
2023/05/31 11:36:57;;;;;;;6.22;1.70;;;23.70;73.60;;;;;;4960994;28;20027;-93
2023/05/31 11:39:22;;;;;;;3.85;0.90;;;23.60;73.50;;;;;;4958145;28;20459;-92
2023/05/31 11:41:48;;;;;;;5.72;0.90;;;23.70;74.40;;;;;;4960513;28;20151;-91
2023/05/31 11:44:19;;;;;;;5.03;1.30;;;23.80;73.20;;;;;;4943402;28;20111;-91
2023/05/31 11:46:49;;;;;;;13.40;1.48;;;23.70;72.40;;;;;;4947476;28;20035;-91
2023/05/31 11:49:14;;;;;;;6.68;1.40;;;23.70;73.30;;;;;;4963031;28;20023;-91
2023/05/31 11:51:44;;;;;;;7.32;1.10;;;23.80;72.50;;;;;;4960270;28;20031;-92
2023/05/31 11:54:11;;;;;;;5.55;1.00;;;23.80;71.20;;;;;;4956422;28;20106;-92
2023/05/31 11:56:37;;;;;;;7.00;1.20;;;23.90;71.40;;;;;;4960719;28;20034;-91
2023/05/31 11:59:02;;;;;;;6.22;1.17;;;24.00;70.90;;;;;;4960181;28;20027;-91
2023/05/31 12:01:34;;;;;;;7.53;1.25;;;24.10;70.10;;;;;;4966885;28;20166;-92
2023/05/31 12:04:00;;;;;;;;;;;24.20;69.00;;;;;;4956011;28;20093;-93
2023/05/31 12:06:28;;;;;;;7.75;1.30;;;24.00;68.90;;;;;;4959529;28;20017;-92
2023/05/31 12:08:54;;;;;;;8.77;1.45;;;24.00;69.30;;;;;;4969089;28;20030;-91
2023/05/31 12:11:21;;;;;;;9.60;1.15;;;24.10;68.90;;;;;;4958978;28;20030;-92
2023/05/31 12:13:47;;;;;;;8.65;1.50;;;24.00;69.00;;;;;;4955814;28;20488;-92
2023/05/31 12:16:13;;;;;;;7.97;1.13;;;24.00;69.80;;;;;;4959024;28;20041;-92
2023/05/31 12:18:38;;;;;;;6.82;1.40;;;24.20;69.30;;;;;;4962901;28;20031;-92
2023/05/31 12:21:11;;;;;;;3.80;0.90;;;24.30;69.90;;;;;;4956009;28;20468;-91
2023/05/31 12:23:57;;;;;;;4.75;1.63;;;24.40;69.20;;;;;;4953143;28;20567;-91
2023/05/31 12:26:26;;;;;;;7.85;1.25;;;24.40;68.70;;;;;;4953533;28;20031;-91
2023/05/31 12:28:51;;;;;;;6.75;1.02;;;24.40;69.60;;;;;;4963767;28;20062;-92
2023/05/31 12:31:24;;;;;;;5.78;1.25;;;24.50;69.40;;;;;;4970756;28;20031;-91
2023/05/31 12:34:00;;;;;;;5.22;1.08;;;24.60;68.80;;;;;;4961144;28;20047;-91
2023/05/31 12:36:26;;;;;;;6.28;1.20;;;24.70;68.00;;;;;;4976043;28;20399;-91
2023/05/31 12:38:59;;;;;;;6.60;0.98;;;24.70;67.50;;;;;;4979511;28;20022;-91